sensor_id;sensor_type;location;lat;lon;timestamp;P1;durP1;ratioP1;P2;durP2;ratioP2
66087;SDS011;52872;52.994;6.940;2023-02-28T00:01:32;8.32;;;4.38;;
66087;SDS011;52872;52.994;6.940;2023-02-28T00:03:59;7.70;;;4.35;;
66087;SDS011;52872;52.994;6.940;2023-02-28T00:06:26;9.95;;;5.50;;
66087;SDS011;52872;52.994;6.940;2023-02-28T00:08:54;8.27;;;6.00;;
66087;SDS011;52872;52.994;6.940;2023-02-28T00:11:21;9.93;;;5.82;;
66087;SDS011;52872;52.994;6.940;2023-02-28T00:13:48;8.18;;;4.90;;
66087;SDS011;52872;52.994;6.940;2023-02-28T00:16:19;8.80;;;4.18;;
66087;SDS011;52872;52.994;6.940;2023-02-28T00:18:48;6.43;;;4.47;;
66087;SDS011;52872;52.994;6.940;2023-02-28T00:21:16;10.00;;;4.32;;
66087;SDS011;52872;52.994;6.940;2023-02-28T00:23:44;6.35;;;4.32;;
66087;SDS011;52872;52.994;6.940;2023-02-28T00:26:11;8.13;;;4.18;;
66087;SDS011;52872;52.994;6.940;2023-02-28T00:28:42;9.57;;;4.18;;
66087;SDS011;52872;52.994;6.940;2023-02-28T00:31:09;11.93;;;4.57;;
66087;SDS011;52872;52.994;6.940;2023-02-28T00:33:36;6.72;;;4.00;;
66087;SDS011;52872;52.994;6.940;2023-02-28T00:36:05;8.27;;;4.68;;
66087;SDS011;52872;52.994;6.940;2023-02-28T00:38:35;10.30;;;4.50;;
66087;SDS011;52872;52.994;6.940;2023-02-28T00:41:02;10.15;;;3.95;;
66087;SDS011;52872;52.994;6.940;2023-02-28T00:43:37;7.60;;;4.55;;
66087;SDS011;52872;52.994;6.940;2023-02-28T00:46:05;9.75;;;3.97;;
66087;SDS011;52872;52.994;6.940;2023-02-28T00:48:32;5.70;;;4.07;;
66087;SDS011;52872;52.994;6.940;2023-02-28T00:50:59;8.13;;;4.50;;
66087;SDS011;52872;52.994;6.940;2023-02-28T00:53:27;6.15;;;3.65;;
66087;SDS011;52872;52.994;6.940;2023-02-28T00:55:56;9.55;;;4.30;;
66087;SDS011;52872;52.994;6.940;2023-02-28T00:58:24;10.13;;;4.40;;
66087;SDS011;52872;52.994;6.940;2023-02-28T01:00:51;10.70;;;3.90;;
66087;SDS011;52872;52.994;6.940;2023-02-28T01:03:20;7.40;;;3.60;;
66087;SDS011;52872;52.994;6.940;2023-02-28T01:05:48;9.48;;;4.20;;
66087;SDS011;52872;52.994;6.940;2023-02-28T01:08:16;10.70;;;4.03;;
66087;SDS011;52872;52.994;6.940;2023-02-28T01:10:43;8.00;;;3.83;;
66087;SDS011;52872;52.994;6.940;2023-02-28T01:13:10;8.27;;;3.80;;
66087;SDS011;52872;52.994;6.940;2023-02-28T01:15:39;7.05;;;4.20;;
66087;SDS011;52872;52.994;6.940;2023-02-28T01:18:11;6.80;;;4.43;;
66087;SDS011;52872;52.994;6.940;2023-02-28T01:20:38;6.30;;;3.90;;
66087;SDS011;52872;52.994;6.940;2023-02-28T01:23:05;10.55;;;4.07;;
66087;SDS011;52872;52.994;6.940;2023-02-28T01:25:36;7.25;;;4.03;;
66087;SDS011;52872;52.994;6.940;2023-02-28T01:28:03;5.70;;;3.80;;
66087;SDS011;52872;52.994;6.940;2023-02-28T01:30:33;6.88;;;3.90;;
66087;SDS011;52872;52.994;6.940;2023-02-28T01:33:00;9.13;;;4.20;;
66087;SDS011;52872;52.994;6.940;2023-02-28T01:35:27;7.00;;;3.90;;
66087;SDS011;52872;52.994;6.940;2023-02-28T01:37:54;6.65;;;3.83;;
66087;SDS011;52872;52.994;6.940;2023-02-28T01:40:26;3.85;;;3.50;;
66087;SDS011;52872;52.994;6.940;2023-02-28T01:42:53;5.35;;;4.10;;
66087;SDS011;52872;52.994;6.940;2023-02-28T01:45:27;7.22;;;4.65;;
66087;SDS011;52872;52.994;6.940;2023-02-28T01:48:03;7.03;;;5.05;;
66087;SDS011;52872;52.994;6.940;2023-02-28T01:50:38;7.45;;;4.40;;
66087;SDS011;52872;52.994;6.940;2023-02-28T01:53:13;6.60;;;4.65;;
66087;SDS011;52872;52.994;6.940;2023-02-28T01:55:45;7.05;;;4.45;;
66087;SDS011;52872;52.994;6.940;2023-02-28T01:58:14;10.88;;;4.80;;
66087;SDS011;52872;52.994;6.940;2023-02-28T02:00:42;9.82;;;5.40;;
66087;SDS011;52872;52.994;6.940;2023-02-28T02:03:10;10.70;;;5.32;;
66087;SDS011;52872;52.994;6.940;2023-02-28T02:05:45;8.20;;;5.05;;
66087;SDS011;52872;52.994;6.940;2023-02-28T02:08:18;8.25;;;5.07;;
66087;SDS011;52872;52.994;6.940;2023-02-28T02:10:58;7.65;;;4.90;;
66087;SDS011;52872;52.994;6.940;2023-02-28T02:16:34;7.65;;;4.45;;
66087;SDS011;52872;52.994;6.940;2023-02-28T02:19:14;7.65;;;4.53;;
66087;SDS011;52872;52.994;6.940;2023-02-28T02:35:59;6.00;;;4.15;;
66087;SDS011;52872;52.994;6.940;2023-02-28T02:38:46;6.97;;;4.72;;
66087;SDS011;52872;52.994;6.940;2023-02-28T02:44:15;7.20;;;5.03;;
66087;SDS011;52872;52.994;6.940;2023-02-28T02:46:51;5.53;;;4.30;;
66087;SDS011;52872;52.994;6.940;2023-02-28T02:49:28;6.20;;;4.28;;
66087;SDS011;52872;52.994;6.940;2023-02-28T02:52:00;5.93;;;4.60;;
66087;SDS011;52872;52.994;6.940;2023-02-28T02:54:43;5.15;;;3.58;;
66087;SDS011;52872;52.994;6.940;2023-02-28T02:57:21;6.30;;;4.40;;
66087;SDS011;52872;52.994;6.940;2023-02-28T02:59:56;5.43;;;4.22;;
66087;SDS011;52872;52.994;6.940;2023-02-28T03:02:25;5.97;;;4.32;;
66087;SDS011;52872;52.994;6.940;2023-02-28T03:04:56;9.90;;;5.15;;
66087;SDS011;52872;52.994;6.940;2023-02-28T03:07:27;6.22;;;4.75;;
66087;SDS011;52872;52.994;6.940;2023-02-28T03:09:55;6.50;;;4.80;;
66087;SDS011;52872;52.994;6.940;2023-02-28T03:12:27;6.82;;;4.75;;
66087;SDS011;52872;52.994;6.940;2023-02-28T03:20:41;9.75;;;5.57;;
66087;SDS011;52872;52.994;6.940;2023-02-28T03:23:16;8.65;;;5.72;;
66087;SDS011;52872;52.994;6.940;2023-02-28T03:26:06;10.93;;;5.55;;
66087;SDS011;52872;52.994;6.940;2023-02-28T03:28:45;8.93;;;5.50;;
66087;SDS011;52872;52.994;6.940;2023-02-28T03:31:26;9.18;;;6.50;;
66087;SDS011;52872;52.994;6.940;2023-02-28T03:34:06;10.93;;;6.05;;
66087;SDS011;52872;52.994;6.940;2023-02-28T03:36:39;8.10;;;5.68;;
66087;SDS011;52872;52.994;6.940;2023-02-28T03:39:14;7.28;;;6.00;;
66087;SDS011;52872;52.994;6.940;2023-02-28T03:41:56;9.52;;;5.57;;
66087;SDS011;52872;52.994;6.940;2023-02-28T03:52:38;12.75;;;5.68;;
66087;SDS011;52872;52.994;6.940;2023-02-28T03:55:19;8.77;;;5.60;;
66087;SDS011;52872;52.994;6.940;2023-02-28T03:57:58;9.80;;;6.57;;
66087;SDS011;52872;52.994;6.940;2023-02-28T04:01:00;8.52;;;5.18;;
66087;SDS011;52872;52.994;6.940;2023-02-28T04:03:35;9.00;;;5.70;;
66087;SDS011;52872;52.994;6.940;2023-02-28T04:06:03;8.77;;;5.68;;
66087;SDS011;52872;52.994;6.940;2023-02-28T04:08:32;10.73;;;6.65;;
66087;SDS011;52872;52.994;6.940;2023-02-28T04:11:19;11.23;;;6.05;;
66087;SDS011;52872;52.994;6.940;2023-02-28T04:14:04;6.57;;;5.65;;
66087;SDS011;52872;52.994;6.940;2023-02-28T04:16:32;8.35;;;6.03;;
66087;SDS011;52872;52.994;6.940;2023-02-28T04:19:04;9.00;;;5.30;;
66087;SDS011;52872;52.994;6.940;2023-02-28T04:21:34;9.75;;;6.47;;
66087;SDS011;52872;52.994;6.940;2023-02-28T04:24:05;8.63;;;5.78;;
66087;SDS011;52872;52.994;6.940;2023-02-28T04:26:34;11.65;;;6.25;;
66087;SDS011;52872;52.994;6.940;2023-02-28T04:29:03;9.70;;;6.80;;
66087;SDS011;52872;52.994;6.940;2023-02-28T04:31:32;9.25;;;6.38;;
66087;SDS011;52872;52.994;6.940;2023-02-28T04:34:00;8.70;;;6.13;;
66087;SDS011;52872;52.994;6.940;2023-02-28T04:36:27;9.90;;;6.10;;
66087;SDS011;52872;52.994;6.940;2023-02-28T04:38:54;9.23;;;6.30;;
66087;SDS011;52872;52.994;6.940;2023-02-28T04:41:21;9.75;;;6.18;;
66087;SDS011;52872;52.994;6.940;2023-02-28T04:43:50;8.05;;;5.50;;
66087;SDS011;52872;52.994;6.940;2023-02-28T04:46:18;7.18;;;6.05;;
66087;SDS011;52872;52.994;6.940;2023-02-28T04:48:46;6.32;;;5.13;;
66087;SDS011;52872;52.994;6.940;2023-02-28T04:51:14;9.10;;;5.75;;
66087;SDS011;52872;52.994;6.940;2023-02-28T04:53:42;10.38;;;6.05;;
66087;SDS011;52872;52.994;6.940;2023-02-28T04:56:11;8.85;;;6.00;;
66087;SDS011;52872;52.994;6.940;2023-02-28T04:58:40;10.20;;;5.93;;
66087;SDS011;52872;52.994;6.940;2023-02-28T05:01:15;9.07;;;6.07;;
66087;SDS011;52872;52.994;6.940;2023-02-28T05:03:45;8.23;;;6.03;;
66087;SDS011;52872;52.994;6.940;2023-02-28T05:06:13;8.00;;;5.85;;
66087;SDS011;52872;52.994;6.940;2023-02-28T05:08:41;7.78;;;5.45;;
66087;SDS011;52872;52.994;6.940;2023-02-28T05:11:15;6.20;;;5.60;;
66087;SDS011;52872;52.994;6.940;2023-02-28T05:13:42;8.32;;;5.43;;
66087;SDS011;52872;52.994;6.940;2023-02-28T05:16:09;7.35;;;6.03;;
66087;SDS011;52872;52.994;6.940;2023-02-28T05:18:37;8.45;;;5.53;;
66087;SDS011;52872;52.994;6.940;2023-02-28T05:21:04;10.60;;;6.55;;
66087;SDS011;52872;52.994;6.940;2023-02-28T05:23:32;7.93;;;5.82;;
66087;SDS011;52872;52.994;6.940;2023-02-28T05:25:59;12.07;;;7.18;;
66087;SDS011;52872;52.994;6.940;2023-02-28T05:28:26;9.68;;;6.35;;
66087;SDS011;52872;52.994;6.940;2023-02-28T05:30:53;10.70;;;7.97;;
66087;SDS011;52872;52.994;6.940;2023-02-28T05:33:19;10.23;;;6.18;;
66087;SDS011;52872;52.994;6.940;2023-02-28T05:35:46;7.47;;;6.50;;
66087;SDS011;52872;52.994;6.940;2023-02-28T05:38:13;11.38;;;6.55;;
66087;SDS011;52872;52.994;6.940;2023-02-28T05:40:40;9.48;;;6.18;;
66087;SDS011;52872;52.994;6.940;2023-02-28T05:43:09;9.95;;;6.90;;
66087;SDS011;52872;52.994;6.940;2023-02-28T05:45:37;9.32;;;5.90;;
66087;SDS011;52872;52.994;6.940;2023-02-28T05:48:05;13.02;;;6.97;;
66087;SDS011;52872;52.994;6.940;2023-02-28T05:50:32;10.48;;;7.30;;
66087;SDS011;52872;52.994;6.940;2023-02-28T05:52:59;8.85;;;6.57;;
66087;SDS011;52872;52.994;6.940;2023-02-28T05:55:26;13.63;;;7.47;;
66087;SDS011;52872;52.994;6.940;2023-02-28T05:57:52;9.38;;;7.10;;
66087;SDS011;52872;52.994;6.940;2023-02-28T06:00:19;12.48;;;7.32;;
66087;SDS011;52872;52.994;6.940;2023-02-28T06:02:47;11.82;;;7.22;;
66087;SDS011;52872;52.994;6.940;2023-02-28T06:05:15;11.40;;;7.38;;
66087;SDS011;52872;52.994;6.940;2023-02-28T06:07:43;12.20;;;8.05;;
66087;SDS011;52872;52.994;6.940;2023-02-28T06:10:11;11.85;;;7.25;;
66087;SDS011;52872;52.994;6.940;2023-02-28T06:12:38;12.93;;;8.10;;
66087;SDS011;52872;52.994;6.940;2023-02-28T06:15:11;10.95;;;7.63;;
66087;SDS011;52872;52.994;6.940;2023-02-28T06:17:39;12.25;;;8.75;;
66087;SDS011;52872;52.994;6.940;2023-02-28T06:20:10;14.63;;;8.20;;
66087;SDS011;52872;52.994;6.940;2023-02-28T06:22:41;12.10;;;7.97;;
66087;SDS011;52872;52.994;6.940;2023-02-28T06:25:09;10.90;;;7.85;;
66087;SDS011;52872;52.994;6.940;2023-02-28T06:27:36;15.73;;;9.40;;
66087;SDS011;52872;52.994;6.940;2023-02-28T06:30:03;13.05;;;8.25;;
66087;SDS011;52872;52.994;6.940;2023-02-28T06:32:31;13.57;;;8.70;;
66087;SDS011;52872;52.994;6.940;2023-02-28T06:34:58;9.95;;;8.02;;
66087;SDS011;52872;52.994;6.940;2023-02-28T06:37:24;12.85;;;7.78;;
66087;SDS011;52872;52.994;6.940;2023-02-28T06:39:54;11.85;;;8.63;;
66087;SDS011;52872;52.994;6.940;2023-02-28T06:42:22;11.00;;;8.50;;
66087;SDS011;52872;52.994;6.940;2023-02-28T06:44:55;12.82;;;8.27;;
66087;SDS011;52872;52.994;6.940;2023-02-28T06:47:23;12.32;;;8.30;;
66087;SDS011;52872;52.994;6.940;2023-02-28T06:49:50;14.52;;;8.38;;
66087;SDS011;52872;52.994;6.940;2023-02-28T06:52:17;12.30;;;9.07;;
66087;SDS011;52872;52.994;6.940;2023-02-28T06:54:44;13.02;;;7.63;;
66087;SDS011;52872;52.994;6.940;2023-02-28T06:57:11;12.13;;;7.50;;
66087;SDS011;52872;52.994;6.940;2023-02-28T06:59:38;9.90;;;7.78;;
66087;SDS011;52872;52.994;6.940;2023-02-28T07:02:05;14.70;;;8.10;;
66087;SDS011;52872;52.994;6.940;2023-02-28T07:04:33;9.85;;;7.35;;
66087;SDS011;52872;52.994;6.940;2023-02-28T07:06:59;10.20;;;7.03;;
66087;SDS011;52872;52.994;6.940;2023-02-28T07:09:26;11.82;;;7.88;;
66087;SDS011;52872;52.994;6.940;2023-02-28T07:11:56;12.30;;;8.40;;
66087;SDS011;52872;52.994;6.940;2023-02-28T07:14:23;12.98;;;8.18;;
66087;SDS011;52872;52.994;6.940;2023-02-28T07:16:50;11.45;;;8.55;;
66087;SDS011;52872;52.994;6.940;2023-02-28T07:19:17;11.88;;;8.45;;
66087;SDS011;52872;52.994;6.940;2023-02-28T07:21:44;11.13;;;7.45;;
66087;SDS011;52872;52.994;6.940;2023-02-28T07:24:11;10.05;;;7.65;;
66087;SDS011;52872;52.994;6.940;2023-02-28T07:26:38;11.48;;;8.15;;
66087;SDS011;52872;52.994;6.940;2023-02-28T07:29:05;9.00;;;7.32;;
66087;SDS011;52872;52.994;6.940;2023-02-28T07:31:32;10.68;;;7.80;;
66087;SDS011;52872;52.994;6.940;2023-02-28T07:33:59;10.18;;;6.85;;
66087;SDS011;52872;52.994;6.940;2023-02-28T07:36:26;10.07;;;7.65;;
66087;SDS011;52872;52.994;6.940;2023-02-28T07:38:53;10.45;;;7.65;;
66087;SDS011;52872;52.994;6.940;2023-02-28T07:41:21;11.43;;;7.68;;
66087;SDS011;52872;52.994;6.940;2023-02-28T07:43:49;11.55;;;8.13;;
66087;SDS011;52872;52.994;6.940;2023-02-28T07:46:17;14.98;;;8.10;;
66087;SDS011;52872;52.994;6.940;2023-02-28T07:48:46;8.80;;;7.43;;
66087;SDS011;52872;52.994;6.940;2023-02-28T07:51:13;11.38;;;7.80;;
66087;SDS011;52872;52.994;6.940;2023-02-28T07:53:40;12.63;;;8.43;;
66087;SDS011;52872;52.994;6.940;2023-02-28T07:56:08;11.40;;;7.35;;
66087;SDS011;52872;52.994;6.940;2023-02-28T07:58:36;13.23;;;8.38;;
66087;SDS011;52872;52.994;6.940;2023-02-28T08:01:07;9.75;;;8.32;;
66087;SDS011;52872;52.994;6.940;2023-02-28T08:03:35;11.18;;;8.27;;
66087;SDS011;52872;52.994;6.940;2023-02-28T08:06:03;12.75;;;8.63;;
66087;SDS011;52872;52.994;6.940;2023-02-28T08:08:31;11.27;;;8.38;;
66087;SDS011;52872;52.994;6.940;2023-02-28T08:10:59;10.85;;;8.38;;
66087;SDS011;52872;52.994;6.940;2023-02-28T08:13:29;11.13;;;8.27;;
66087;SDS011;52872;52.994;6.940;2023-02-28T08:15:56;11.38;;;8.63;;
66087;SDS011;52872;52.994;6.940;2023-02-28T08:18:24;11.93;;;8.80;;
66087;SDS011;52872;52.994;6.940;2023-02-28T08:20:51;12.93;;;8.70;;
66087;SDS011;52872;52.994;6.940;2023-02-28T08:23:18;11.52;;;8.13;;
66087;SDS011;52872;52.994;6.940;2023-02-28T08:25:52;10.27;;;7.68;;
66087;SDS011;52872;52.994;6.940;2023-02-28T08:28:20;12.73;;;8.77;;
66087;SDS011;52872;52.994;6.940;2023-02-28T08:30:50;12.95;;;8.52;;
66087;SDS011;52872;52.994;6.940;2023-02-28T08:33:17;11.98;;;9.35;;
66087;SDS011;52872;52.994;6.940;2023-02-28T08:35:44;13.25;;;9.35;;
66087;SDS011;52872;52.994;6.940;2023-02-28T08:38:11;10.05;;;8.15;;
66087;SDS011;52872;52.994;6.940;2023-02-28T08:40:38;13.15;;;9.43;;
66087;SDS011;52872;52.994;6.940;2023-02-28T08:43:05;11.70;;;9.57;;
66087;SDS011;52872;52.994;6.940;2023-02-28T08:45:32;12.18;;;8.77;;
66087;SDS011;52872;52.994;6.940;2023-02-28T08:47:59;11.73;;;8.73;;
66087;SDS011;52872;52.994;6.940;2023-02-28T08:50:26;12.93;;;9.40;;
66087;SDS011;52872;52.994;6.940;2023-02-28T08:52:53;12.70;;;9.38;;
66087;SDS011;52872;52.994;6.940;2023-02-28T08:55:20;15.50;;;10.38;;
66087;SDS011;52872;52.994;6.940;2023-02-28T08:57:47;12.40;;;9.48;;
66087;SDS011;52872;52.994;6.940;2023-02-28T09:00:14;12.10;;;9.52;;
66087;SDS011;52872;52.994;6.940;2023-02-28T09:02:41;11.63;;;9.15;;
66087;SDS011;52872;52.994;6.940;2023-02-28T09:05:09;9.45;;;8.48;;
66087;SDS011;52872;52.994;6.940;2023-02-28T09:07:36;11.63;;;9.57;;
66087;SDS011;52872;52.994;6.940;2023-02-28T09:10:04;10.52;;;9.43;;
66087;SDS011;52872;52.994;6.940;2023-02-28T09:12:32;13.45;;;9.45;;
66087;SDS011;52872;52.994;6.940;2023-02-28T09:15:01;12.13;;;8.82;;
66087;SDS011;52872;52.994;6.940;2023-02-28T09:17:28;10.40;;;8.38;;
66087;SDS011;52872;52.994;6.940;2023-02-28T09:19:56;12.90;;;9.77;;
66087;SDS011;52872;52.994;6.940;2023-02-28T09:22:23;11.10;;;8.90;;
66087;SDS011;52872;52.994;6.940;2023-02-28T09:24:50;15.68;;;9.95;;
66087;SDS011;52872;52.994;6.940;2023-02-28T09:27:18;13.02;;;8.93;;
66087;SDS011;52872;52.994;6.940;2023-02-28T09:29:45;11.70;;;8.77;;
66087;SDS011;52872;52.994;6.940;2023-02-28T09:32:12;16.05;;;9.30;;
66087;SDS011;52872;52.994;6.940;2023-02-28T09:34:39;8.82;;;7.93;;
66087;SDS011;52872;52.994;6.940;2023-02-28T09:37:06;10.18;;;7.47;;
66087;SDS011;52872;52.994;6.940;2023-02-28T09:39:33;9.57;;;7.57;;
66087;SDS011;52872;52.994;6.940;2023-02-28T09:42:00;11.43;;;7.05;;
66087;SDS011;52872;52.994;6.940;2023-02-28T09:44:40;8.48;;;6.75;;
66087;SDS011;52872;52.994;6.940;2023-02-28T09:47:29;11.05;;;6.90;;
66087;SDS011;52872;52.994;6.940;2023-02-28T09:50:02;7.78;;;6.15;;
66087;SDS011;52872;52.994;6.940;2023-02-28T09:52:49;8.30;;;5.75;;
66087;SDS011;52872;52.994;6.940;2023-02-28T09:58:31;8.30;;;7.28;;
66087;SDS011;52872;52.994;6.940;2023-02-28T10:01:21;5.68;;;4.75;;
66087;SDS011;52872;52.994;6.940;2023-02-28T10:04:08;7.53;;;4.80;;
66087;SDS011;52872;52.994;6.940;2023-02-28T10:06:56;5.63;;;4.10;;
66087;SDS011;52872;52.994;6.940;2023-02-28T10:09:24;5.53;;;3.05;;
66087;SDS011;52872;52.994;6.940;2023-02-28T10:12:01;7.93;;;5.65;;
66087;SDS011;52872;52.994;6.940;2023-02-28T10:14:32;6.35;;;4.00;;
66087;SDS011;52872;52.994;6.940;2023-02-28T10:22:38;5.72;;;4.90;;
66087;SDS011;52872;52.994;6.940;2023-02-28T10:25:21;6.00;;;4.50;;
66087;SDS011;52872;52.994;6.940;2023-02-28T10:27:53;7.10;;;5.05;;
66087;SDS011;52872;52.994;6.940;2023-02-28T10:30:48;7.07;;;5.22;;
66087;SDS011;52872;52.994;6.940;2023-02-28T10:33:21;6.57;;;5.88;;
66087;SDS011;52872;52.994;6.940;2023-02-28T10:35:49;8.05;;;6.00;;
66087;SDS011;52872;52.994;6.940;2023-02-28T10:38:28;7.97;;;6.38;;
66087;SDS011;52872;52.994;6.940;2023-02-28T10:41:13;6.50;;;5.90;;
66087;SDS011;52872;52.994;6.940;2023-02-28T10:44:12;8.05;;;6.07;;
66087;SDS011;52872;52.994;6.940;2023-02-28T10:46:49;7.90;;;5.78;;
66087;SDS011;52872;52.994;6.940;2023-02-28T10:49:20;8.13;;;6.35;;
66087;SDS011;52872;52.994;6.940;2023-02-28T10:51:52;6.55;;;5.72;;
66087;SDS011;52872;52.994;6.940;2023-02-28T10:54:25;6.20;;;5.60;;
66087;SDS011;52872;52.994;6.940;2023-02-28T10:57:16;6.97;;;5.80;;
66087;SDS011;52872;52.994;6.940;2023-02-28T10:59:51;6.85;;;5.15;;
66087;SDS011;52872;52.994;6.940;2023-02-28T11:07:51;8.00;;;6.05;;
66087;SDS011;52872;52.994;6.940;2023-02-28T11:10:24;7.25;;;6.05;;
66087;SDS011;52872;52.994;6.940;2023-02-28T11:12:56;8.40;;;6.00;;
66087;SDS011;52872;52.994;6.940;2023-02-28T11:15:27;7.35;;;5.70;;
66087;SDS011;52872;52.994;6.940;2023-02-28T11:18:02;7.78;;;5.88;;
66087;SDS011;52872;52.994;6.940;2023-02-28T11:20:38;6.65;;;5.47;;
66087;SDS011;52872;52.994;6.940;2023-02-28T11:23:09;7.70;;;5.30;;
66087;SDS011;52872;52.994;6.940;2023-02-28T11:25:39;5.47;;;4.43;;
66087;SDS011;52872;52.994;6.940;2023-02-28T11:28:34;6.40;;;4.60;;
66087;SDS011;52872;52.994;6.940;2023-02-28T11:31:03;4.97;;;4.28;;
66087;SDS011;52872;52.994;6.940;2023-02-28T11:33:40;5.07;;;4.60;;
66087;SDS011;52872;52.994;6.940;2023-02-28T11:36:15;4.72;;;4.32;;
66087;SDS011;52872;52.994;6.940;2023-02-28T11:38:55;5.60;;;4.40;;
66087;SDS011;52872;52.994;6.940;2023-02-28T11:46:54;5.05;;;4.28;;
66087;SDS011;52872;52.994;6.940;2023-02-28T11:49:32;7.43;;;5.15;;
66087;SDS011;52872;52.994;6.940;2023-02-28T11:52:20;6.28;;;5.53;;
66087;SDS011;52872;52.994;6.940;2023-02-28T11:54:51;5.90;;;5.30;;
66087;SDS011;52872;52.994;6.940;2023-02-28T11:57:39;4.80;;;4.40;;
66087;SDS011;52872;52.994;6.940;2023-02-28T12:00:39;5.80;;;4.90;;
66087;SDS011;52872;52.994;6.940;2023-02-28T12:05:50;5.57;;;4.80;;
66087;SDS011;52872;52.994;6.940;2023-02-28T12:13:58;6.03;;;4.95;;
66087;SDS011;52872;52.994;6.940;2023-02-28T12:19:25;6.63;;;5.10;;
66087;SDS011;52872;52.994;6.940;2023-02-28T12:22:21;6.07;;;4.50;;
66087;SDS011;52872;52.994;6.940;2023-02-28T12:25:44;4.95;;;4.55;;
66087;SDS011;52872;52.994;6.940;2023-02-28T12:27:49;5.93;;;5.07;;
66087;SDS011;52872;52.994;6.940;2023-02-28T12:30:21;5.28;;;4.47;;
66087;SDS011;52872;52.994;6.940;2023-02-28T12:33:03;6.00;;;5.18;;
66087;SDS011;52872;52.994;6.940;2023-02-28T12:38:23;5.50;;;4.95;;
66087;SDS011;52872;52.994;6.940;2023-02-28T12:41:01;6.18;;;4.03;;
66087;SDS011;52872;52.994;6.940;2023-02-28T12:43:35;4.63;;;4.22;;
66087;SDS011;52872;52.994;6.940;2023-02-28T12:46:20;7.03;;;4.97;;
66087;SDS011;52872;52.994;6.940;2023-02-28T12:48:59;5.15;;;4.65;;
66087;SDS011;52872;52.994;6.940;2023-02-28T12:51:48;6.50;;;4.78;;
66087;SDS011;52872;52.994;6.940;2023-02-28T12:57:09;4.75;;;4.07;;
66087;SDS011;52872;52.994;6.940;2023-02-28T13:10:38;4.55;;;4.15;;
66087;SDS011;52872;52.994;6.940;2023-02-28T13:13:14;5.85;;;4.85;;
66087;SDS011;52872;52.994;6.940;2023-02-28T13:16:05;5.22;;;4.72;;
66087;SDS011;52872;52.994;6.940;2023-02-28T13:18:35;5.32;;;4.32;;
66087;SDS011;52872;52.994;6.940;2023-02-28T13:21:06;5.25;;;3.83;;
66087;SDS011;52872;52.994;6.940;2023-02-28T13:26:22;4.03;;;3.72;;
66087;SDS011;52872;52.994;6.940;2023-02-28T13:34:28;4.25;;;3.40;;
66087;SDS011;52872;52.994;6.940;2023-02-28T13:39:45;4.18;;;3.67;;
66087;SDS011;52872;52.994;6.940;2023-02-28T13:47:29;3.92;;;3.63;;
66087;SDS011;52872;52.994;6.940;2023-02-28T13:58:38;5.00;;;4.57;;
66087;SDS011;52872;52.994;6.940;2023-02-28T14:04:27;6.35;;;4.57;;
66087;SDS011;52872;52.994;6.940;2023-02-28T14:07:00;5.75;;;4.53;;
66087;SDS011;52872;52.994;6.940;2023-02-28T14:09:29;4.95;;;4.50;;
66087;SDS011;52872;52.994;6.940;2023-02-28T14:11:57;7.72;;;5.10;;
66087;SDS011;52872;52.994;6.940;2023-02-28T14:17:15;5.88;;;4.10;;
66087;SDS011;52872;52.994;6.940;2023-02-28T14:19:44;5.80;;;5.00;;
66087;SDS011;52872;52.994;6.940;2023-02-28T14:27:49;6.35;;;4.50;;
66087;SDS011;52872;52.994;6.940;2023-02-28T14:33:16;5.18;;;4.68;;
66087;SDS011;52872;52.994;6.940;2023-02-28T14:35:54;12.43;;;8.95;;
66087;SDS011;52872;52.994;6.940;2023-02-28T14:38:31;4.70;;;4.15;;
66087;SDS011;52872;52.994;6.940;2023-02-28T14:41:03;4.90;;;4.40;;
66087;SDS011;52872;52.994;6.940;2023-02-28T14:43:33;6.45;;;4.60;;
66087;SDS011;52872;52.994;6.940;2023-02-28T14:46:02;5.35;;;4.50;;
66087;SDS011;52872;52.994;6.940;2023-02-28T14:48:36;5.15;;;3.88;;
66087;SDS011;52872;52.994;6.940;2023-02-28T14:51:04;5.60;;;3.55;;
66087;SDS011;52872;52.994;6.940;2023-02-28T14:53:35;5.20;;;4.30;;
66087;SDS011;52872;52.994;6.940;2023-02-28T14:56:03;6.00;;;4.18;;
66087;SDS011;52872;52.994;6.940;2023-02-28T14:58:32;4.40;;;4.00;;
66087;SDS011;52872;52.994;6.940;2023-02-28T15:01:01;5.20;;;4.07;;
66087;SDS011;52872;52.994;6.940;2023-02-28T15:03:31;7.30;;;4.47;;
66087;SDS011;52872;52.994;6.940;2023-02-28T15:06:01;4.40;;;4.07;;
66087;SDS011;52872;52.994;6.940;2023-02-28T15:08:30;4.68;;;4.03;;
66087;SDS011;52872;52.994;6.940;2023-02-28T15:11:02;6.47;;;4.45;;
66087;SDS011;52872;52.994;6.940;2023-02-28T15:13:38;4.93;;;4.35;;
66087;SDS011;52872;52.994;6.940;2023-02-28T15:16:12;4.70;;;4.30;;
66087;SDS011;52872;52.994;6.940;2023-02-28T15:18:48;4.50;;;4.15;;
66087;SDS011;52872;52.994;6.940;2023-02-28T15:21:18;4.32;;;3.92;;
66087;SDS011;52872;52.994;6.940;2023-02-28T15:23:51;5.20;;;3.83;;
66087;SDS011;52872;52.994;6.940;2023-02-28T15:26:22;4.07;;;3.53;;
66087;SDS011;52872;52.994;6.940;2023-02-28T15:29:04;4.68;;;4.13;;
66087;SDS011;52872;52.994;6.940;2023-02-28T15:31:40;3.65;;;3.22;;
66087;SDS011;52872;52.994;6.940;2023-02-28T15:34:26;6.18;;;3.83;;
66087;SDS011;52872;52.994;6.940;2023-02-28T15:37:27;4.72;;;3.28;;
66087;SDS011;52872;52.994;6.940;2023-02-28T15:40:14;4.15;;;3.75;;
66087;SDS011;52872;52.994;6.940;2023-02-28T15:42:58;3.65;;;3.35;;
66087;SDS011;52872;52.994;6.940;2023-02-28T15:45:27;4.13;;;3.70;;
66087;SDS011;52872;52.994;6.940;2023-02-28T15:47:55;5.00;;;4.60;;
66087;SDS011;52872;52.994;6.940;2023-02-28T15:50:27;5.18;;;4.63;;
66087;SDS011;52872;52.994;6.940;2023-02-28T15:52:57;8.40;;;4.60;;
66087;SDS011;52872;52.994;6.940;2023-02-28T15:55:26;6.63;;;4.70;;
66087;SDS011;52872;52.994;6.940;2023-02-28T15:57:55;5.60;;;4.55;;
66087;SDS011;52872;52.994;6.940;2023-02-28T16:00:25;5.13;;;4.63;;
66087;SDS011;52872;52.994;6.940;2023-02-28T16:02:53;4.40;;;4.00;;
66087;SDS011;52872;52.994;6.940;2023-02-28T16:05:22;5.13;;;4.53;;
66087;SDS011;52872;52.994;6.940;2023-02-28T16:08:01;5.50;;;4.20;;
66087;SDS011;52872;52.994;6.940;2023-02-28T16:10:39;4.30;;;3.90;;
66087;SDS011;52872;52.994;6.940;2023-02-28T16:13:08;4.05;;;3.53;;
66087;SDS011;52872;52.994;6.940;2023-02-28T16:15:41;4.50;;;3.55;;
66087;SDS011;52872;52.994;6.940;2023-02-28T16:18:10;4.30;;;3.75;;
66087;SDS011;52872;52.994;6.940;2023-02-28T16:20:38;4.13;;;3.80;;
66087;SDS011;52872;52.994;6.940;2023-02-28T16:23:06;4.65;;;4.25;;
66087;SDS011;52872;52.994;6.940;2023-02-28T16:25:35;4.00;;;3.70;;
66087;SDS011;52872;52.994;6.940;2023-02-28T16:28:06;4.80;;;4.03;;
66087;SDS011;52872;52.994;6.940;2023-02-28T16:30:53;4.05;;;3.65;;
66087;SDS011;52872;52.994;6.940;2023-02-28T16:33:20;4.07;;;3.67;;
66087;SDS011;52872;52.994;6.940;2023-02-28T16:35:47;4.35;;;3.83;;
66087;SDS011;52872;52.994;6.940;2023-02-28T16:38:14;4.20;;;3.80;;
66087;SDS011;52872;52.994;6.940;2023-02-28T16:40:41;4.88;;;3.70;;
66087;SDS011;52872;52.994;6.940;2023-02-28T16:43:10;4.43;;;3.90;;
66087;SDS011;52872;52.994;6.940;2023-02-28T16:48:13;3.80;;;3.40;;
66087;SDS011;52872;52.994;6.940;2023-02-28T16:50:41;4.07;;;3.63;;
66087;SDS011;52872;52.994;6.940;2023-02-28T16:53:10;4.00;;;3.70;;
66087;SDS011;52872;52.994;6.940;2023-02-28T16:55:37;3.88;;;3.40;;
66087;SDS011;52872;52.994;6.940;2023-02-28T16:58:04;3.75;;;3.28;;
66087;SDS011;52872;52.994;6.940;2023-02-28T17:00:32;4.63;;;3.60;;
66087;SDS011;52872;52.994;6.940;2023-02-28T17:02:59;4.95;;;4.22;;
66087;SDS011;52872;52.994;6.940;2023-02-28T17:05:33;5.97;;;3.70;;
66087;SDS011;52872;52.994;6.940;2023-02-28T17:08:04;4.97;;;4.57;;
66087;SDS011;52872;52.994;6.940;2023-02-28T17:10:31;5.13;;;4.57;;
66087;SDS011;52872;52.994;6.940;2023-02-28T17:12:58;4.32;;;3.90;;